Time;durP1;ratioP1;P1;durP2;ratioP2;P2;SDS_P1;SDS_P2;PMS_P1;PMS_P2;Temp;Humidity;BMP_temperature;BMP_pressure;BME280_temperature;BME280_humidity;BME280_pressure;Samples;Min_cycle;Max_cycle;Signal;HPM_P1;HPM_P2
2022/04/04 00:00:47;;;;;;;10.87;7.63;;;3.10;99.90;;;;;;5069954;28;20119;-70
2022/04/04 00:03:13;;;;;;;10.03;6.70;;;3.10;99.90;;;;;;5085625;28;20071;-70
2022/04/04 00:05:39;;;;;;;9.53;6.70;;;3.10;99.90;;;;;;5070307;28;20091;-68
2022/04/04 00:08:09;;;;;;;7.80;6.87;;;3.10;99.90;;;;;;5069866;28;20046;-70
2022/04/04 00:10:35;;;;;;;9.47;7.50;;;3.10;99.90;;;;;;5086341;28;20051;-70
2022/04/04 00:13:01;;;;;;;8.90;6.73;;;3.10;99.90;;;;;;5069306;28;20112;-70
2022/04/04 00:15:27;;;;;;;8.80;7.17;;;3.10;99.90;;;;;;5069162;28;20051;-70
2022/04/04 00:17:55;;;;;;;7.80;7.00;;;3.10;99.90;;;;;;5087556;28;20047;-70
2022/04/04 00:20:22;;;;;;;8.70;7.23;;;3.10;99.90;;;;;;5069492;28;20402;-70
2022/04/04 00:22:48;;;;;;;9.13;7.27;;;3.10;99.90;;;;;;5066499;28;20497;-69
2022/04/04 00:25:14;;;;;;;8.70;7.00;;;3.10;99.90;;;;;;5052233;28;20603;-70
2022/04/04 00:27:40;;;;;;;9.27;7.50;;;3.00;99.90;;;;;;5069792;28;20047;-70
2022/04/04 00:30:07;;;;;;;8.47;7.27;;;3.10;99.90;;;;;;5070025;28;20156;-70
2022/04/04 00:32:37;;;;;;;10.75;7.10;;;3.00;99.90;;;;;;5069161;28;20044;-70
2022/04/04 00:35:03;;;;;;;9.63;7.47;;;3.00;99.90;;;;;;5049798;28;20056;-70
2022/04/04 00:37:29;;;;;;;12.73;7.70;;;3.00;99.90;;;;;;5072486;28;20343;-70
2022/04/04 00:39:54;;;;;;;8.90;7.00;;;3.00;99.90;;;;;;5069570;28;20043;-70
2022/04/04 00:42:20;;;;;;;8.60;6.70;;;3.00;99.90;;;;;;5069036;28;20054;-68
2022/04/04 00:44:46;;;;;;;7.80;6.87;;;3.00;99.90;;;;;;5084694;28;20070;-69
2022/04/04 00:47:12;;;;;;;9.70;7.30;;;3.10;99.90;;;;;;5085698;28;20078;-69
2022/04/04 00:49:38;;;;;;;8.20;6.73;;;3.10;99.90;;;;;;5069154;28;20043;-69
2022/04/04 00:52:05;;;;;;;9.53;7.10;;;3.10;99.90;;;;;;5085183;28;20045;-69
2022/04/04 00:54:32;;;;;;;8.87;7.03;;;3.10;99.90;;;;;;5101652;28;20147;-69
2022/04/04 00:57:00;;;;;;;10.57;7.67;;;3.10;99.90;;;;;;5086276;28;20055;-69
2022/04/04 00:59:26;;;;;;;11.90;8.40;;;3.10;99.90;;;;;;5104040;28;20039;-68
2022/04/04 01:01:52;;;;;;;8.83;7.23;;;3.20;99.90;;;;;;5086358;28;20040;-69
2022/04/04 01:04:18;;;;;;;8.97;7.77;;;3.20;99.90;;;;;;5084681;28;20043;-68
2022/04/04 01:06:44;;;;;;;9.07;8.07;;;3.20;99.90;;;;;;5069772;28;20371;-69
2022/04/04 01:09:14;;;;;;;11.40;8.47;;;3.30;99.90;;;;;;5069477;28;20569;-68
2022/04/04 01:11:59;;;;;;;;;;;3.30;99.90;;;;;;5067726;28;20137;-68
2022/04/04 01:14:24;;;;;;;12.60;9.63;;;3.40;99.90;;;;;;5082140;28;19972;-69
2022/04/04 01:16:50;;;;;;;12.97;10.57;;;3.40;99.90;;;;;;5052640;28;20077;-69
2022/04/04 01:19:16;;;;;;;12.30;11.00;;;3.50;99.90;;;;;;5068601;28;20071;-69
2022/04/04 01:21:42;;;;;;;12.53;11.23;;;3.50;99.90;;;;;;5067701;28;20043;-69
2022/04/04 01:24:17;;;;;;;13.00;11.67;;;3.60;99.90;;;;;;5086717;28;20051;-69
2022/04/04 01:26:51;;;;;;;13.27;11.80;;;3.60;99.90;;;;;;5069741;28;20450;-70
2022/04/04 01:29:17;;;;;;;14.70;13.30;;;3.70;99.90;;;;;;5083424;28;20609;-69
2022/04/04 01:31:43;;;;;;;16.13;14.43;;;3.70;99.90;;;;;;5086030;28;20031;-69
2022/04/04 01:34:09;;;;;;;18.03;15.30;;;3.70;99.90;;;;;;5086074;28;20062;-69
2022/04/04 01:36:35;;;;;;;17.03;15.33;;;3.80;99.90;;;;;;5085111;28;20391;-69
2022/04/04 01:39:01;;;;;;;17.23;15.50;;;3.90;99.90;;;;;;5086197;28;20043;-69
2022/04/04 01:41:27;;;;;;;18.13;16.23;;;3.90;99.90;;;;;;5068200;28;20043;-69
2022/04/04 01:43:53;;;;;;;18.57;16.63;;;4.00;99.90;;;;;;5084288;28;20105;-69
2022/04/04 01:46:26;;;;;;;19.30;17.23;;;4.00;99.90;;;;;;5084441;28;20044;-70
2022/04/04 01:48:58;;;;;;;19.70;17.87;;;4.00;99.90;;;;;;5068921;28;20035;-70
2022/04/04 01:51:24;;;;;;;18.67;16.87;;;4.00;99.90;;;;;;5084655;28;20548;-70
2022/04/04 01:53:50;;;;;;;17.80;16.20;;;4.00;99.90;;;;;;5085378;28;20486;-69
2022/04/04 01:56:17;;;;;;;18.47;16.57;;;4.10;99.90;;;;;;5067428;28;20075;-69
2022/04/04 01:58:43;;;;;;;17.97;16.23;;;4.10;99.90;;;;;;5068191;28;20036;-68
2022/04/04 02:01:21;;;;;;;18.67;16.30;;;4.10;99.90;;;;;;5067189;28;20539;-70
2022/04/04 02:03:50;;;;;;;16.93;15.33;;;4.20;99.90;;;;;;5084900;28;20051;-70
2022/04/04 02:06:16;;;;;;;18.33;16.67;;;4.30;99.90;;;;;;5070042;28;20050;-71
2022/04/04 02:08:44;;;;;;;19.33;17.53;;;4.20;99.90;;;;;;5086272;28;20047;-70
2022/04/04 02:11:12;;;;;;;18.50;16.60;;;4.20;99.90;;;;;;5086938;28;20055;-70
2022/04/04 02:13:38;;;;;;;18.90;16.90;;;4.20;99.90;;;;;;5085247;28;20055;-71
2022/04/04 02:16:04;;;;;;;19.17;17.23;;;4.20;99.90;;;;;;5118054;27;20047;-70
2022/04/04 02:18:31;;;;;;;18.93;17.13;;;4.10;99.90;;;;;;5082630;28;20055;-69
2022/04/04 02:20:58;;;;;;;19.60;17.60;;;4.20;99.90;;;;;;5100931;28;20569;-69
2022/04/04 02:23:24;;;;;;;18.20;16.50;;;4.20;99.90;;;;;;5104163;28;20086;-70
2022/04/04 02:25:52;;;;;;;18.87;17.00;;;4.20;99.90;;;;;;5069215;28;20440;-69
2022/04/04 02:28:18;;;;;;;17.97;16.17;;;4.20;99.90;;;;;;5077738;28;20105;-69
2022/04/04 02:30:45;;;;;;;18.73;16.90;;;4.20;99.90;;;;;;5085563;28;20049;-69
2022/04/04 02:33:18;;;;;;;19.30;16.93;;;4.20;99.90;;;;;;5086342;28;20052;-71
2022/04/04 02:35:44;;;;;;;19.30;16.40;;;4.20;99.90;;;;;;5068240;28;20220;-70
2022/04/04 02:38:11;;;;;;;18.10;16.20;;;4.20;99.90;;;;;;5069835;28;20055;-70
2022/04/04 02:40:37;;;;;;;20.30;17.70;;;4.20;99.90;;;;;;5085761;28;20047;-70
2022/04/04 02:43:04;;;;;;;19.80;17.73;;;4.20;99.90;;;;;;5085921;28;21091;-70
2022/04/04 02:45:30;;;;;;;19.03;17.13;;;4.20;99.90;;;;;;5086519;28;20035;-71
2022/04/04 02:47:56;;;;;;;18.97;16.97;;;4.30;99.90;;;;;;5087206;28;20065;-70
2022/04/04 02:50:22;;;;;;;21.17;18.03;;;4.30;99.90;;;;;;5069007;28;20313;-70
2022/04/04 02:52:49;;;;;;;22.00;18.23;;;4.30;99.90;;;;;;5069148;28;20070;-70
2022/04/04 02:57:59;;;;;;;18.47;16.57;;;4.30;99.90;;;;;;5071939;28;20163;-69
2022/04/04 03:00:28;;;;;;;19.60;17.50;;;4.40;99.90;;;;;;5066797;28;20204;-70
2022/04/04 03:02:55;;;;;;;20.63;18.50;;;4.40;99.90;;;;;;5049106;28;20119;-69
2022/04/04 03:05:22;;;;;;;23.83;18.63;;;4.30;99.90;;;;;;5067711;28;20051;-69
2022/04/04 03:07:49;;;;;;;18.67;16.67;;;4.40;99.90;;;;;;5066795;28;20134;-69
2022/04/04 03:10:15;;;;;;;20.33;17.57;;;4.40;99.90;;;;;;5066676;28;20550;-71
2022/04/04 03:12:42;;;;;;;22.47;18.63;;;4.40;99.90;;;;;;5083378;28;20481;-70
2022/04/04 03:15:18;;;;;;;23.53;18.90;;;4.40;99.90;;;;;;5085698;28;20367;-71
2022/04/04 03:17:47;;;;;;;20.20;18.17;;;4.50;99.90;;;;;;5087694;28;20453;-70
2022/04/04 03:20:15;;;;;;;21.93;18.23;;;4.50;99.90;;;;;;5088585;28;20109;-71
2022/04/04 03:22:45;;;;;;;21.07;18.90;;;4.60;99.90;;;;;;5070735;28;20054;-70
2022/04/04 03:25:14;;;;;;;19.83;17.80;;;4.60;99.90;;;;;;5088076;28;20067;-70
2022/04/04 03:27:41;;;;;;;21.43;19.23;;;4.70;99.90;;;;;;5100845;28;20123;-70
2022/04/04 03:30:12;;;;;;;20.33;18.30;;;4.60;99.90;;;;;;5086643;28;20052;-70
2022/04/04 03:32:38;;;;;;;21.10;18.63;;;4.70;99.90;;;;;;5070454;28;20105;-70
2022/04/04 03:35:06;;;;;;;22.03;19.67;;;4.70;99.90;;;;;;5085841;28;20044;-70
2022/04/04 03:37:33;;;;;;;20.50;18.30;;;4.80;99.90;;;;;;5087103;28;20054;-71
2022/04/04 03:39:59;;;;;;;20.53;18.43;;;4.80;99.90;;;;;;5071042;28;20047;-71
2022/04/04 03:42:24;;;;;;;22.27;19.17;;;4.80;99.90;;;;;;5070469;28;20119;-70
2022/04/04 03:44:50;;;;;;;19.60;17.57;;;4.90;99.90;;;;;;5086412;28;20047;-71
2022/04/04 03:47:16;;;;;;;20.67;18.20;;;4.90;99.90;;;;;;5103839;28;20043;-71
2022/04/04 03:49:42;;;;;;;20.43;17.77;;;4.90;99.90;;;;;;5070584;28;20138;-70
2022/04/04 03:52:08;;;;;;;19.23;16.95;;;5.00;99.90;;;;;;5087536;28;20131;-70
2022/04/04 03:54:35;;;;;;;19.83;17.63;;;5.00;99.90;;;;;;5087008;28;20040;-71
2022/04/04 03:57:01;;;;;;;21.63;18.37;;;5.00;99.90;;;;;;5087613;28;20119;-70
2022/04/04 03:59:27;;;;;;;19.85;17.58;;;5.00;99.90;;;;;;5070292;28;20420;-70
2022/04/04 04:01:53;;;;;;;20.40;17.42;;;5.10;99.90;;;;;;5086027;28;20589;-69
2022/04/04 04:04:19;;;;;;;21.15;18.25;;;5.10;99.90;;;;;;5087840;28;20092;-69
2022/04/04 04:06:45;;;;;;;21.75;17.88;;;5.10;99.90;;;;;;5072007;28;20444;-70
2022/04/04 04:09:12;;;;;;;20.60;17.50;;;5.10;99.90;;;;;;5089299;28;20043;-72
2022/04/04 04:11:38;;;;;;;20.53;18.13;;;5.10;99.90;;;;;;5071534;28;20443;-71
2022/04/04 04:14:04;;;;;;;19.48;17.33;;;5.20;99.90;;;;;;5089365;28;20044;-70
2022/04/04 04:16:31;;;;;;;19.75;17.67;;;5.20;99.90;;;;;;5123899;27;20051;-70
2022/04/04 04:18:57;;;;;;;19.00;17.00;;;5.20;99.90;;;;;;5090094;28;20114;-72
2022/04/04 04:21:23;;;;;;;22.70;18.23;;;5.20;99.90;;;;;;5123862;27;20620;-70
2022/04/04 04:23:50;;;;;;;21.17;18.47;;;5.20;99.90;;;;;;5072256;28;20490;-71
2022/04/04 04:26:17;;;;;;;21.43;19.20;;;5.10;99.90;;;;;;5088984;28;20525;-71
2022/04/04 04:28:45;;;;;;;21.25;19.15;;;5.10;99.90;;;;;;5088915;28;20066;-70
2022/04/04 04:31:11;;;;;;;21.23;18.90;;;5.10;99.90;;;;;;5089294;28;20134;-70
2022/04/04 04:33:37;;;;;;;21.02;19.02;;;5.10;99.90;;;;;;5088325;28;20047;-71
2022/04/04 04:36:03;;;;;;;19.87;17.77;;;5.10;99.90;;;;;;5067586;28;20043;-69
2022/04/04 04:38:30;;;;;;;20.43;17.80;;;5.10;99.90;;;;;;5084533;28;20126;-70
2022/04/04 04:40:57;;;;;;;21.03;18.37;;;5.10;99.90;;;;;;5068284;28;20462;-69
2022/04/04 04:43:23;;;;;;;21.92;19.52;;;5.10;99.90;;;;;;5084007;28;20089;-70
2022/04/04 04:45:49;;;;;;;20.97;18.23;;;5.10;99.90;;;;;;5068141;28;20447;-71
2022/04/04 04:48:15;;;;;;;20.27;18.13;;;5.10;99.90;;;;;;5068614;28;20048;-71
2022/04/04 04:50:41;;;;;;;21.03;18.70;;;5.10;99.90;;;;;;5067111;28;20177;-70
2022/04/04 04:53:07;;;;;;;21.53;19.27;;;5.10;99.90;;;;;;5068033;28;20522;-71
2022/04/04 04:55:33;;;;;;;20.83;18.67;;;5.10;99.90;;;;;;5084157;28;20142;-71
2022/04/04 04:57:59;;;;;;;21.03;18.83;;;5.10;99.90;;;;;;5060024;28;20409;-72
2022/04/04 05:00:27;;;;;;;20.23;18.23;;;5.10;99.90;;;;;;5059923;28;20055;-70
2022/04/04 05:05:40;;;;;;;23.07;20.77;;;5.10;99.90;;;;;;5064453;28;20043;-70
2022/04/04 05:08:07;;;;;;;21.97;19.70;;;5.00;99.90;;;;;;5077254;28;20048;-70
2022/04/04 05:10:32;;;;;;;22.63;19.77;;;5.00;99.90;;;;;;5076751;28;20051;-70
2022/04/04 05:12:58;;;;;;;23.53;21.03;;;5.00;99.90;;;;;;5045781;28;20044;-70
2022/04/04 05:15:24;;;;;;;24.93;20.63;;;5.00;99.90;;;;;;5063095;28;20080;-70
2022/04/04 05:17:52;;;;;;;23.00;19.92;;;5.00;99.90;;;;;;5059657;28;20127;-69
2022/04/04 05:20:21;;;;;;;24.07;21.43;;;5.00;99.90;;;;;;5062732;28;20040;-69
2022/04/04 05:22:47;;;;;;;24.37;22.00;;;5.00;99.90;;;;;;5079407;28;20051;-70
2022/04/04 05:25:14;;;;;;;24.90;22.47;;;5.00;99.90;;;;;;5078095;28;20040;-71
2022/04/04 05:27:40;;;;;;;24.87;22.43;;;5.00;99.90;;;;;;5080636;28;20126;-70
2022/04/04 05:30:08;;;;;;;23.33;20.83;;;5.00;99.90;;;;;;5082432;28;20975;-71
2022/04/04 05:32:34;;;;;;;22.60;20.30;;;5.00;99.90;;;;;;5082034;28;20048;-70
2022/04/04 05:35:06;;;;;;;24.33;21.70;;;5.00;99.90;;;;;;5062863;28;20056;-70
2022/04/04 05:37:32;;;;;;;21.83;19.57;;;5.00;99.90;;;;;;5081691;28;20059;-71
2022/04/04 05:39:58;;;;;;;23.58;21.25;;;5.00;99.90;;;;;;5080073;28;20127;-71
2022/04/04 05:42:24;;;;;;;22.97;20.57;;;5.00;99.90;;;;;;5097277;28;20158;-71
2022/04/04 05:44:49;;;;;;;23.43;21.13;;;5.00;99.90;;;;;;5058698;28;20092;-71
2022/04/04 05:47:19;;;;;;;23.90;21.50;;;5.00;99.90;;;;;;5055003;28;20064;-71
2022/04/04 05:49:46;;;;;;;23.33;21.20;;;5.00;99.90;;;;;;5080833;28;20048;-70
2022/04/04 05:52:12;;;;;;;23.07;20.67;;;5.00;99.90;;;;;;5059161;28;20134;-71
2022/04/04 05:54:53;;;;;;;25.60;22.40;;;5.00;99.90;;;;;;5056819;28;20173;-70
2022/04/04 05:57:27;;;;;;;24.60;21.70;;;5.00;99.90;;;;;;5096855;27;20451;-70
2022/04/04 05:59:53;;;;;;;24.83;21.60;;;5.00;99.90;;;;;;5079755;28;20498;-70
2022/04/04 06:02:20;;;;;;;25.10;22.47;;;5.00;99.90;;;;;;5079581;28;20122;-69
2022/04/04 06:04:47;;;;;;;24.30;21.73;;;5.00;99.90;;;;;;5077123;28;20044;-70
2022/04/04 06:07:13;;;;;;;23.13;20.73;;;4.90;99.90;;;;;;5079257;28;20259;-71
2022/04/04 06:09:39;;;;;;;25.17;22.40;;;5.00;99.90;;;;;;5060907;28;20222;-70
2022/04/04 06:12:05;;;;;;;23.87;21.37;;;5.00;99.90;;;;;;5063321;28;20067;-72
2022/04/04 06:14:30;;;;;;;26.60;23.17;;;4.90;99.90;;;;;;5063338;28;20298;-69
2022/04/04 06:16:56;;;;;;;25.10;22.40;;;4.90;99.90;;;;;;5079936;28;20075;-72
2022/04/04 06:19:22;;;;;;;26.13;23.17;;;4.90;99.90;;;;;;5063185;28;20132;-72
2022/04/04 06:21:48;;;;;;;23.37;20.87;;;4.90;99.90;;;;;;5080616;28;20089;-72
2022/04/04 06:24:14;;;;;;;24.10;21.67;;;4.90;99.90;;;;;;5096945;28;20155;-70
2022/04/04 06:26:40;;;;;;;24.37;20.77;;;4.90;99.90;;;;;;5079929;28;20096;-70
2022/04/04 06:29:09;;;;;;;24.23;21.67;;;4.90;99.90;;;;;;5062383;28;20055;-69
2022/04/04 06:31:39;;;;;;;27.13;24.20;;;4.90;99.90;;;;;;5078745;28;20055;-70
2022/04/04 06:34:05;;;;;;;24.17;21.30;;;4.90;99.90;;;;;;5076892;28;20186;-71
2022/04/04 06:36:31;;;;;;;25.40;22.80;;;4.90;99.90;;;;;;5056984;28;20056;-70
2022/04/04 06:38:58;;;;;;;26.27;23.17;;;4.90;99.90;;;;;;5077614;28;20043;-71
2022/04/04 06:41:24;;;;;;;30.47;24.83;;;4.90;99.90;;;;;;5062205;28;20055;-71
2022/04/04 06:43:50;;;;;;;24.90;22.40;;;4.90;99.90;;;;;;5058856;28;20040;-71
2022/04/04 06:46:17;;;;;;;25.50;22.60;;;4.90;99.90;;;;;;5077399;28;20040;-73
2022/04/04 06:48:45;;;;;;;26.23;23.43;;;4.90;99.90;;;;;;5058867;28;20345;-72
2022/04/04 06:51:11;;;;;;;26.70;23.33;;;4.90;99.90;;;;;;5110277;27;20356;-74
2022/04/04 06:53:37;;;;;;;24.27;21.60;;;5.00;99.90;;;;;;5062598;28;20040;-74
2022/04/04 06:56:04;;;;;;;27.63;24.77;;;4.90;99.90;;;;;;5047698;28;20093;-72
2022/04/04 06:58:30;;;;;;;28.60;25.83;;;4.90;99.90;;;;;;5062955;28;20737;-71
2022/04/04 07:00:56;;;;;;;29.20;25.77;;;4.90;99.90;;;;;;5047567;28;20119;-72
2022/04/04 07:03:22;;;;;;;29.50;26.23;;;4.90;99.90;;;;;;5063252;28;20044;-71
2022/04/04 07:05:47;;;;;;;30.07;27.23;;;4.90;99.90;;;;;;5080872;28;20047;-72
2022/04/04 07:08:13;;;;;;;28.60;25.53;;;4.90;99.90;;;;;;5080828;28;20092;-72
2022/04/04 07:10:39;;;;;;;31.10;27.90;;;4.90;99.90;;;;;;5062635;28;20516;-70
2022/04/04 07:13:05;;;;;;;31.93;28.53;;;4.90;99.90;;;;;;5079665;28;20960;-73
2022/04/04 07:15:32;;;;;;;30.70;27.50;;;4.90;99.90;;;;;;5077514;28;20063;-71
2022/04/04 07:17:57;;;;;;;30.00;26.83;;;4.90;99.90;;;;;;5057321;28;20395;-70
2022/04/04 07:20:23;;;;;;;33.00;29.67;;;4.90;99.90;;;;;;5060379;28;20051;-70
2022/04/04 07:22:49;;;;;;;30.97;27.37;;;4.90;99.90;;;;;;5077680;28;20044;-72
2022/04/04 07:25:15;;;;;;;31.13;27.70;;;4.90;99.90;;;;;;5059509;28;20536;-71
2022/04/04 07:27:44;;;;;;;29.57;26.57;;;4.90;99.90;;;;;;5058807;28;21295;-73
2022/04/04 07:30:12;;;;;;;30.30;27.10;;;4.90;99.90;;;;;;5077024;28;20066;-72
2022/04/04 07:32:39;;;;;;;30.77;26.27;;;4.90;99.90;;;;;;5077561;28;20044;-72
2022/04/04 07:35:09;;;;;;;32.83;29.53;;;4.90;99.90;;;;;;5056314;28;20080;-70
2022/04/04 07:37:35;;;;;;;30.23;27.10;;;4.90;99.90;;;;;;5064848;28;20079;-69
2022/04/04 07:40:02;;;;;;;30.27;27.07;;;4.90;99.90;;;;;;5062319;28;20291;-71
2022/04/04 07:42:28;;;;;;;30.60;27.50;;;4.90;99.90;;;;;;5108254;28;20133;-71
2022/04/04 07:44:53;;;;;;;31.30;28.10;;;5.00;99.90;;;;;;5065519;28;20043;-69
2022/04/04 07:47:20;;;;;;;34.77;31.17;;;5.00;99.90;;;;;;5064951;28;20208;-69
2022/04/04 07:49:46;;;;;;;33.43;28.57;;;5.00;99.90;;;;;;5081086;28;20070;-71
2022/04/04 07:52:11;;;;;;;33.60;30.20;;;5.00;99.90;;;;;;5114989;28;20049;-72
2022/04/04 07:54:37;;;;;;;35.27;31.60;;;5.00;99.90;;;;;;5080035;28;20417;-74
2022/04/04 07:57:03;;;;;;;35.97;32.27;;;5.00;99.90;;;;;;5064776;28;20475;-71
2022/04/04 07:59:29;;;;;;;36.03;32.37;;;5.00;99.90;;;;;;5080233;28;20040;-72
2022/04/04 08:01:58;;;;;;;39.10;34.90;;;5.10;99.90;;;;;;5117716;27;20032;-71
2022/04/04 08:04:23;;;;;;;37.53;33.67;;;5.00;99.90;;;;;;5082999;28;20032;-73
2022/04/04 08:06:50;;;;;;;36.77;32.87;;;5.10;99.90;;;;;;5083386;28;20040;-74
2022/04/04 08:09:16;;;;;;;38.58;34.45;;;5.10;99.90;;;;;;5116691;27;20275;-70
2022/04/04 08:11:42;;;;;;;36.37;32.67;;;5.10;99.90;;;;;;5076247;28;20088;-72
2022/04/04 08:14:11;;;;;;;39.83;35.53;;;5.10;99.90;;;;;;5084336;28;20055;-71
2022/04/04 08:16:37;;;;;;;41.07;36.87;;;5.20;99.90;;;;;;5067101;28;20054;-69
2022/04/04 08:19:07;;;;;;;43.43;38.83;;;5.20;99.90;;;;;;5083206;28;20043;-70
2022/04/04 08:21:34;;;;;;;44.30;39.90;;;5.20;99.90;;;;;;5092211;28;20055;-70
2022/04/04 08:23:59;;;;;;;42.53;35.50;;;5.20;99.90;;;;;;5081758;28;20044;-71
2022/04/04 08:26:28;;;;;;;39.67;35.43;;;5.20;99.90;;;;;;5103019;28;20090;-70
2022/04/04 08:28:54;;;;;;;36.65;32.80;;;5.30;99.90;;;;;;5064718;28;20091;-73
2022/04/04 08:31:20;;;;;;;40.63;36.30;;;5.30;99.90;;;;;;5084202;28;20440;-71
2022/04/04 08:33:46;;;;;;;38.93;35.00;;;5.30;99.90;;;;;;5095924;28;20500;-70
2022/04/04 08:36:12;;;;;;;39.75;35.75;;;5.30;99.90;;;;;;5079844;28;20048;-70
2022/04/04 08:38:39;;;;;;;35.20;31.77;;;5.30;99.90;;;;;;5077469;28;20102;-69
2022/04/04 08:41:06;;;;;;;35.77;31.17;;;5.40;99.90;;;;;;5082532;28;20479;-72
2022/04/04 08:43:40;;;;;;;36.60;32.60;;;5.40;99.90;;;;;;5080669;28;20497;-73
2022/04/04 08:46:07;;;;;;;33.33;29.77;;;5.40;99.90;;;;;;5076698;28;20500;-72
2022/04/04 08:48:37;;;;;;;26.17;23.47;;;5.40;99.90;;;;;;5047683;28;20040;-75
2022/04/04 08:51:04;;;;;;;;;;;5.40;99.90;;;;;;5065289;28;20557;-75
2022/04/04 08:53:30;;;;;;;19.03;17.00;;;5.40;99.90;;;;;;5112970;27;19924;-72
2022/04/04 08:55:59;;;;;;;21.03;18.00;;;5.50;99.90;;;;;;5049626;28;20490;-70
2022/04/04 08:58:28;;;;;;;21.25;18.25;;;5.50;99.90;;;;;;5081092;28;20052;-73
2022/04/04 09:00:53;;;;;;;19.63;17.53;;;5.60;99.90;;;;;;5082107;28;20055;-73
2022/04/04 09:03:31;;;;;;;17.30;15.50;;;5.60;99.90;;;;;;5064960;28;20044;-74
2022/04/04 09:05:58;;;;;;;15.93;13.73;;;5.60;99.90;;;;;;5082837;28;20844;-71
2022/04/04 09:08:26;;;;;;;12.05;10.65;;;5.70;99.90;;;;;;5065646;28;20043;-71
2022/04/04 09:10:56;;;;;;;12.43;10.77;;;5.70;99.90;;;;;;5064592;28;20381;-71
2022/04/04 09:13:24;;;;;;;10.85;8.30;;;5.70;99.90;;;;;;5064517;28;20539;-72
2022/04/04 09:15:52;;;;;;;12.87;8.80;;;5.70;99.90;;;;;;5060551;28;20196;-73
2022/04/04 09:18:19;;;;;;;11.00;7.93;;;5.70;99.90;;;;;;5077856;28;20044;-72
2022/04/04 09:20:52;;;;;;;10.07;8.23;;;5.70;99.90;;;;;;5077965;28;20066;-73
2022/04/04 09:23:18;;;;;;;9.93;7.23;;;5.70;99.90;;;;;;5081792;28;20047;-73
2022/04/04 09:25:45;;;;;;;9.60;5.67;;;5.70;99.90;;;;;;5075217;28;20141;-72
2022/04/04 09:28:15;;;;;;;12.63;7.07;;;5.70;99.90;;;;;;5079914;28;20047;-74
2022/04/04 09:30:42;;;;;;;8.20;6.50;;;5.80;99.90;;;;;;5078520;28;20052;-73
2022/04/04 09:33:13;;;;;;;10.07;6.75;;;5.80;99.90;;;;;;5090846;28;20259;-75
2022/04/04 09:35:46;;;;;;;9.57;6.63;;;5.80;99.90;;;;;;5078958;28;20059;-74
2022/04/04 09:38:14;;;;;;;8.17;6.30;;;5.80;99.90;;;;;;5073757;28;20052;-71
2022/04/04 09:40:40;;;;;;;9.30;6.60;;;5.80;99.90;;;;;;5076316;28;20044;-72
2022/04/04 09:43:06;;;;;;;9.00;6.72;;;5.80;99.90;;;;;;5081911;28;20028;-72
2022/04/04 09:45:32;;;;;;;9.13;6.60;;;5.80;99.90;;;;;;5076868;28;20059;-73
2022/04/04 09:48:02;;;;;;;10.00;6.22;;;5.80;99.90;;;;;;5081877;28;20040;-74
2022/04/04 09:50:29;;;;;;;8.65;6.32;;;5.90;99.90;;;;;;5059818;28;20303;-74
2022/04/04 09:52:58;;;;;;;8.13;6.38;;;5.90;99.90;;;;;;5077812;28;20056;-70
2022/04/04 09:55:36;;;;;;;11.13;7.75;;;5.90;99.90;;;;;;5063803;28;20074;-73
2022/04/04 09:58:06;;;;;;;9.80;6.97;;;5.90;99.90;;;;;;5110954;27;20135;-73
2022/04/04 10:00:35;;;;;;;8.07;7.18;;;5.90;99.90;;;;;;5091094;28;20048;-73
2022/04/04 10:03:02;;;;;;;9.57;6.97;;;6.00;99.90;;;;;;5078612;28;20111;-72
2022/04/04 10:05:29;;;;;;;9.80;7.97;;;6.00;99.90;;;;;;5075389;28;20128;-72
2022/04/04 10:07:57;;;;;;;9.18;7.13;;;6.00;99.90;;;;;;5062477;28;20054;-73
2022/04/04 10:10:28;;;;;;;11.32;8.05;;;6.00;99.90;;;;;;5073668;28;20063;-74
2022/04/04 10:12:57;;;;;;;9.15;7.80;;;6.00;99.90;;;;;;5078131;28;20066;-72
2022/04/04 10:15:28;;;;;;;11.48;8.10;;;6.00;99.90;;;;;;5063209;28;20324;-74
2022/04/04 10:17:55;;;;;;;10.00;7.93;;;6.00;99.90;;;;;;5065575;28;20062;-75
2022/04/04 10:20:22;;;;;;;8.95;7.20;;;6.00;99.90;;;;;;5057218;28;20054;-71
2022/04/04 10:22:51;;;;;;;10.97;8.03;;;6.00;99.90;;;;;;5078061;28;20044;-71
2022/04/04 10:25:21;;;;;;;12.27;8.70;;;6.10;99.90;;;;;;5057384;28;20043;-73
2022/04/04 10:27:48;;;;;;;10.27;8.52;;;6.10;99.90;;;;;;5054843;28;20101;-73
2022/04/04 10:30:16;;;;;;;9.90;8.88;;;6.10;99.90;;;;;;5054954;28;20048;-71
2022/04/04 10:32:55;;;;;;;12.75;9.88;;;6.10;99.90;;;;;;5064028;28;20182;-71
2022/04/04 10:35:29;;;;;;;10.93;9.60;;;6.10;99.90;;;;;;5055598;28;20078;-72
2022/04/04 10:37:59;;;;;;;12.07;9.15;;;6.10;99.90;;;;;;5059250;28;20086;-70
2022/04/04 10:40:31;;;;;;;11.02;8.70;;;6.10;99.90;;;;;;5094550;28;20477;-73
2022/04/04 10:43:15;;;;;;;12.25;9.80;;;6.10;99.90;;;;;;5075489;28;20647;-71
2022/04/04 10:46:02;;;;;;;14.13;11.93;;;6.20;99.90;;;;;;5116513;27;20311;-71
2022/04/04 10:48:33;;;;;;;10.82;9.27;;;6.20;99.90;;;;;;5072083;28;20134;-71
2022/04/04 10:51:14;;;;;;;12.05;9.90;;;6.20;99.90;;;;;;5084353;28;20571;-70
2022/04/04 10:53:45;;;;;;;13.57;10.15;;;6.20;99.90;;;;;;5116910;27;20925;-71
2022/04/04 10:56:17;;;;;;;11.82;9.60;;;6.20;99.90;;;;;;5083197;28;20056;-71
2022/04/04 10:58:43;;;;;;;11.70;10.23;;;6.30;99.90;;;;;;5115743;27;20055;-72
2022/04/04 11:01:19;;;;;;;11.45;9.90;;;6.40;99.90;;;;;;5080825;28;20540;-70
2022/04/04 11:03:50;;;;;;;9.75;7.82;;;6.50;99.90;;;;;;5061509;28;20723;-70
2022/04/04 11:09:16;;;;;;;9.32;8.27;;;6.50;99.90;;;;;;5112488;28;20043;-70
2022/04/04 11:11:47;;;;;;;11.93;8.50;;;6.50;99.90;;;;;;5081318;28;20047;-72
2022/04/04 11:14:17;;;;;;;11.00;8.80;;;6.60;99.90;;;;;;5062869;28;20047;-70
2022/04/04 11:17:08;;;;;;;9.48;7.72;;;6.60;99.90;;;;;;5073490;28;20081;-71
2022/04/04 11:20:00;;;;;;;7.18;5.75;;;6.70;99.90;;;;;;5053800;28;20425;-68
2022/04/04 11:22:34;;;;;;;10.25;7.25;;;6.70;99.90;;;;;;5076098;28;20050;-69
2022/04/04 11:25:12;;;;;;;11.45;8.93;;;6.80;99.90;;;;;;5115403;28;20126;-70
2022/04/04 11:27:40;;;;;;;9.60;7.03;;;6.80;99.90;;;;;;5113692;28;20085;-69
2022/04/04 11:30:16;;;;;;;8.77;6.65;;;6.80;99.90;;;;;;5073199;28;20098;-70
2022/04/04 11:32:43;;;;;;;9.02;6.82;;;6.80;99.90;;;;;;5058677;28;20043;-70
2022/04/04 11:35:23;;;;;;;7.20;5.20;;;6.90;99.90;;;;;;5049774;28;20498;-69
2022/04/04 11:37:55;;;;;;;7.22;5.72;;;6.90;99.90;;;;;;5069426;28;20078;-70
2022/04/04 11:40:32;;;;;;;9.30;5.70;;;6.90;99.90;;;;;;5070420;28;20047;-70
2022/04/04 11:42:58;;;;;;;6.85;5.80;;;7.00;99.90;;;;;;5080455;28;20148;-69
2022/04/04 11:45:26;;;;;;;6.72;5.20;;;7.10;99.90;;;;;;5048126;28;20058;-70
2022/04/04 11:48:02;;;;;;;6.40;4.93;;;7.00;99.90;;;;;;5086898;28;20043;-69
2022/04/04 11:50:30;;;;;;;6.22;4.65;;;7.00;99.90;;;;;;5064378;28;20060;-70
2022/04/04 11:53:02;;;;;;;6.88;4.80;;;7.10;99.90;;;;;;5077426;28;20482;-70
2022/04/04 11:55:31;;;;;;;7.82;4.55;;;7.10;99.90;;;;;;5076216;28;20065;-69
2022/04/04 11:58:00;;;;;;;6.32;4.57;;;7.10;99.90;;;;;;5081403;28;20136;-70
2022/04/04 12:00:33;;;;;;;5.65;4.05;;;7.20;99.90;;;;;;5077791;28;20047;-70
2022/04/04 12:03:13;;;;;;;6.85;5.10;;;7.20;99.90;;;;;;5076186;28;20036;-70
2022/04/04 12:05:40;;;;;;;7.55;4.97;;;7.20;99.90;;;;;;5097518;28;20052;-68
2022/04/04 12:08:10;;;;;;;5.85;4.43;;;7.20;99.90;;;;;;5068137;28;20036;-70
2022/04/04 12:10:37;;;;;;;5.82;4.50;;;7.20;99.90;;;;;;5067171;28;20043;-70
2022/04/04 12:13:10;;;;;;;7.45;4.53;;;7.30;99.90;;;;;;5066793;28;20158;-70
2022/04/04 12:15:46;;;;;;;7.18;4.80;;;7.30;99.90;;;;;;5098812;28;20135;-72
2022/04/04 12:18:19;;;;;;;5.60;4.72;;;7.40;99.90;;;;;;5088083;28;20043;-70
2022/04/04 12:20:47;;;;;;;6.50;4.70;;;7.40;99.90;;;;;;5087403;28;20048;-72
2022/04/04 12:26:06;;;;;;;6.40;4.00;;;7.40;99.90;;;;;;5122260;27;20052;-73
2022/04/04 12:28:35;;;;;;;5.85;4.93;;;7.50;99.90;;;;;;5070165;28;20104;-72
2022/04/04 12:31:16;;;;;;;8.43;4.40;;;7.60;99.90;;;;;;5077898;28;20081;-72
2022/04/04 12:33:42;;;;;;;5.63;3.67;;;7.60;99.90;;;;;;5085532;28;20039;-73
2022/04/04 12:36:08;;;;;;;5.57;4.07;;;7.50;99.90;;;;;;5116077;27;20067;-72
2022/04/04 12:38:41;;;;;;;4.95;4.28;;;7.60;99.90;;;;;;5108012;27;20525;-72
2022/04/04 12:41:17;;;;;;;5.28;3.75;;;7.60;99.90;;;;;;5112784;27;20032;-72
2022/04/04 12:43:46;;;;;;;6.47;4.00;;;7.60;99.90;;;;;;5081207;28;20051;-72
2022/04/04 12:46:30;;;;;;;6.35;4.13;;;7.70;99.90;;;;;;5086419;28;20119;-72
2022/04/04 12:49:17;;;;;;;5.32;4.30;;;7.70;99.90;;;;;;5095595;28;20053;-74
2022/04/04 12:52:05;;;;;;;4.18;3.72;;;7.70;99.90;;;;;;5102000;28;20134;-75
2022/04/04 12:54:36;;;;;;;5.25;2.92;;;7.70;99.90;;;;;;5086643;28;20051;-73
2022/04/04 12:57:07;;;;;;;5.28;4.00;;;7.70;99.90;;;;;;5121604;27;20336;-71
2022/04/04 12:59:51;;;;;;;5.28;3.95;;;7.80;99.90;;;;;;5121089;27;20074;-72